createdAt,value
2023-05-05T00:02:23.367Z,101710.81
2023-05-05T00:07:28.894Z,101715.05
2023-05-05T00:12:34.432Z,101711.50
2023-05-05T00:17:39.951Z,101706.78
2023-05-05T00:22:45.443Z,101711.89
2023-05-05T00:27:50.940Z,101711.56
2023-05-05T00:32:57.463Z,101712.09
2023-05-05T00:38:04.320Z,101710.43
2023-05-05T00:43:09.986Z,101707.32
2023-05-05T00:48:17.997Z,101703.30
2023-05-05T00:53:23.936Z,101693.73
2023-05-05T00:58:31.400Z,101685.29
2023-05-05T01:03:43.296Z,101688.19
2023-05-05T01:09:10.174Z,101682.42
2023-05-05T01:14:22.920Z,101686.77
2023-05-05T01:19:55.746Z,101690.25
2023-05-05T01:25:20.715Z,101695.54
2023-05-05T01:31:03.359Z,101686.95
2023-05-05T01:36:29.709Z,101691.59
2023-05-05T01:41:45.502Z,101686.77
2023-05-05T01:46:53.212Z,101694.56
2023-05-05T01:51:59.569Z,101687.71
2023-05-05T01:57:08.519Z,101684.02
2023-05-05T02:02:15.793Z,101691.33
2023-05-05T02:07:22.826Z,101688.39
2023-05-05T02:12:29.943Z,101686.11
2023-05-05T02:17:35.905Z,101689.84
2023-05-05T02:22:42.690Z,101697.29
2023-05-05T02:27:49.568Z,101685.84
2023-05-05T02:33:01.197Z,101690.13
2023-05-05T02:38:09.467Z,101682.22
2023-05-05T02:43:19.898Z,101682.62
2023-05-05T02:48:27.742Z,101687.25
2023-05-05T02:53:34.979Z,101680.63
2023-05-05T02:58:46.268Z,101682.20
2023-05-05T03:04:00.958Z,101682.91
2023-05-05T03:09:16.909Z,101692.75
2023-05-05T03:14:24.306Z,101692.75
2023-05-05T03:19:30.886Z,101691.95
2023-05-05T03:24:38.191Z,101692.21
2023-05-05T03:29:45.323Z,101694.33
2023-05-05T03:34:52.101Z,101696.54
2023-05-05T03:39:59.236Z,101700.84
2023-05-05T03:45:05.546Z,101700.44
2023-05-05T03:50:11.448Z,101707.41
2023-05-05T03:55:17.309Z,101710.16
2023-05-05T04:00:23.106Z,101713.94
2023-05-05T04:05:29.673Z,101709.66
2023-05-05T04:10:35.853Z,101715.34
2023-05-05T04:15:47.056Z,101719.91
2023-05-05T04:20:52.853Z,101732.42
2023-05-05T04:25:59.472Z,101726.40
2023-05-05T04:31:06.669Z,101737.31
2023-05-05T04:36:13.817Z,101729.95
2023-05-05T04:41:19.689Z,101733.59
2023-05-05T04:46:26.597Z,101742.84
2023-05-05T04:51:33.419Z,101746.25
2023-05-05T04:56:39.087Z,101753.22
2023-05-05T05:01:44.789Z,101755.36
2023-05-05T05:06:50.694Z,101758.44
2023-05-05T05:12:02.908Z,101755.70
2023-05-05T05:17:08.756Z,101759.20
2023-05-05T05:22:14.549Z,101756.03
2023-05-05T05:27:20.819Z,101758.64
2023-05-05T05:32:27.032Z,101766.34
2023-05-05T05:37:32.890Z,101758.74
2023-05-05T05:42:40.163Z,101769.30
2023-05-05T05:47:46.094Z,101763.84
2023-05-05T05:52:51.954Z,101772.36
2023-05-05T05:57:57.721Z,101782.78
2023-05-05T06:03:03.750Z,101786.77
2023-05-05T06:08:11.129Z,101789.23
2023-05-05T06:13:18.428Z,101795.75
2023-05-05T06:18:25.722Z,101792.44
2023-05-05T06:23:31.903Z,101799.23
2023-05-05T06:28:39.526Z,101802.75
2023-05-05T06:33:45.157Z,101802.77
2023-05-05T06:38:50.971Z,101803.09
2023-05-05T06:43:56.406Z,101805.66
2023-05-05T06:49:01.998Z,101804.22
2023-05-05T06:54:07.742Z,101804.11
2023-05-05T06:59:13.252Z,101800.19
2023-05-05T07:04:18.908Z,101803.13
2023-05-05T07:09:24.577Z,101803.96
2023-05-05T07:14:30.033Z,101596.06
2023-05-05T07:19:35.468Z,101810.92
2023-05-05T07:24:41.072Z,101814.48
2023-05-05T07:29:46.778Z,101811.16
2023-05-05T07:34:52.487Z,101814.17
2023-05-05T07:39:57.984Z,101814.31
2023-05-05T07:45:03.659Z,101814.48
2023-05-05T07:50:10.326Z,101821.45
2023-05-05T07:55:16.153Z,101810.48
2023-05-05T08:00:22.056Z,101806.28
2023-05-05T08:05:27.583Z,101810.22
2023-05-05T08:10:33.295Z,101808.88
2023-05-05T08:15:38.830Z,101804.86
2023-05-05T08:20:44.391Z,101805.97
2023-05-05T08:25:50.774Z,101817.96
2023-05-05T08:30:56.296Z,101823.95
2023-05-05T08:36:03.097Z,101833.09
2023-05-05T08:41:10.868Z,101834.91
2023-05-05T08:46:17.163Z,101843.45
2023-05-05T08:51:25.267Z,101842.42
2023-05-05T08:56:39.636Z,101846.69
2023-05-05T09:01:46.168Z,101844.95
2023-05-05T09:06:52.247Z,101852.77
2023-05-05T09:12:02.525Z,101857.08
2023-05-05T09:17:09.786Z,101845.92
2023-05-05T09:22:15.382Z,101839.36
2023-05-05T09:27:23.570Z,101838.38
2023-05-05T09:32:30.604Z,101838.41
2023-05-05T09:37:36.245Z,101831.08
2023-05-05T09:42:42.399Z,101828.80
2023-05-05T09:47:49.604Z,101822.88
2023-05-05T09:53:05.302Z,101815.04
2023-05-05T09:58:28.326Z,101823.97
2023-05-05T10:03:33.829Z,101825.04
2023-05-05T10:08:39.344Z,101822.08
2023-05-05T10:13:49.011Z,101826.45
2023-05-05T10:18:54.821Z,101825.30
2023-05-05T10:24:06.290Z,101821.17
2023-05-05T10:29:31.946Z,101811.02
2023-05-05T10:34:56.960Z,101819.61
2023-05-05T10:40:03.671Z,101810.97
2023-05-05T10:45:18.518Z,101806.50
2023-05-05T10:50:30.165Z,101802.67
2023-05-05T10:55:42.909Z,101792.80
2023-05-05T11:00:51.399Z,101790.48
2023-05-05T11:06:08.832Z,101792.83
2023-05-05T11:11:14.731Z,101789.75
2023-05-05T11:16:47.382Z,101780.33
2023-05-05T11:22:03.478Z,101765.73
2023-05-05T11:32:43.146Z,101757.97
2023-05-05T11:37:52.524Z,101751.66
2023-05-05T11:43:07.665Z,101759.07
2023-05-05T11:48:28.686Z,101735.86
2023-05-05T11:54:00.651Z,101737.17
2023-05-05T11:59:11.640Z,101731.66
2023-05-05T12:04:18.310Z,101729.02
2023-05-05T12:09:24.800Z,101722.13
2023-05-05T12:14:33.791Z,101723.73
2023-05-05T12:19:48.164Z,101716.72
2023-05-05T12:24:58.358Z,101705.78
2023-05-05T12:30:18.229Z,101692.95
2023-05-05T12:35:24.041Z,101699.64
2023-05-05T12:40:48.867Z,101688.70
2023-05-05T12:46:17.825Z,101684.81
2023-05-05T12:51:24.276Z,101681.80
2023-05-05T12:56:41.158Z,101672.21
2023-05-05T13:02:02.972Z,101656.47
2023-05-05T13:07:13.763Z,101654.41
2023-05-05T13:18:16.354Z,101651.98
2023-05-05T13:23:22.711Z,101641.87
2023-05-05T13:28:28.844Z,101640.44
2023-05-05T13:33:37.768Z,101637.52
2023-05-05T13:38:48.044Z,101629.40
2023-05-05T13:43:53.916Z,101627.55
2023-05-05T13:48:59.429Z,101626.77
2023-05-05T13:54:05.490Z,101619.08
2023-05-05T13:59:12.957Z,101610.47
2023-05-05T14:04:18.557Z,101604.65
2023-05-05T14:09:24.769Z,101588.45
2023-05-05T14:14:30.561Z,101593.55
2023-05-05T14:19:36.568Z,101587.80
2023-05-05T14:24:43.788Z,101590.06
2023-05-05T14:29:55.432Z,101587.62
2023-05-05T14:35:08.780Z,101587.28
2023-05-05T14:40:23.746Z,101592.09
2023-05-05T14:45:29.771Z,101578.23
2023-05-05T14:50:35.858Z,101574.89
2023-05-05T14:55:41.530Z,101572.61
2023-05-05T15:00:47.870Z,101580.27
2023-05-05T15:05:53.496Z,101574.80
2023-05-05T15:11:01.032Z,101582.34
2023-05-05T15:16:10.541Z,101576.02
2023-05-05T15:21:17.909Z,101576.30
2023-05-05T15:26:24.220Z,101570.33
2023-05-05T15:31:29.867Z,101572.20
2023-05-05T15:36:37.075Z,101571.25
2023-05-05T15:41:42.612Z,101562.93
2023-05-05T15:46:50.356Z,101566.05
2023-05-05T15:51:55.863Z,101561.06
2023-05-05T15:57:03.284Z,101547.97
2023-05-05T16:02:08.871Z,101547.20
2023-05-05T16:07:14.555Z,101545.97
2023-05-05T16:12:21.038Z,101548.55
2023-05-05T16:17:26.633Z,101546.41
2023-05-05T16:22:32.148Z,101534.22
2023-05-05T16:27:37.672Z,101538.37
2023-05-05T16:32:46.604Z,101534.38
2023-05-05T16:37:52.747Z,101525.91
2023-05-05T16:42:59.154Z,101530.19
2023-05-05T16:48:07.418Z,101538.48
2023-05-05T16:53:16.770Z,101539.32
2023-05-05T16:58:23.247Z,101549.06
2023-05-05T17:03:29.692Z,101546.38
2023-05-05T17:08:37.810Z,101544.81
2023-05-05T17:13:49.590Z,101538.25
2023-05-05T17:19:05.014Z,101536.27
2023-05-05T17:24:11.929Z,101546.92
2023-05-05T17:29:19.095Z,101547.80
2023-05-05T17:34:24.679Z,101554.02
2023-05-05T17:39:31.324Z,101549.95
2023-05-05T17:44:36.843Z,101552.89
2023-05-05T17:49:42.668Z,101562.91
2023-05-05T17:54:49.108Z,101553.54
2023-05-05T17:59:55.632Z,101553.70
2023-05-05T18:05:01.775Z,101552.98
2023-05-05T18:10:10.760Z,101549.89
2023-05-05T18:15:17.131Z,101552.06
2023-05-05T18:20:22.836Z,101558.92
2023-05-05T18:25:28.425Z,101558.35
2023-05-05T18:30:34.314Z,101556.22
2023-05-05T18:35:39.827Z,101559.96
2023-05-05T18:40:50.135Z,101555.32
2023-05-05T18:45:55.894Z,101561.03
2023-05-05T18:51:05.751Z,101557.56
2023-05-05T18:56:21.822Z,101557.47
2023-05-05T19:01:27.720Z,101558.73
2023-05-05T19:06:33.501Z,101567.72
2023-05-05T19:11:40.725Z,101560.09
2023-05-05T19:16:46.379Z,101561.66
2023-05-05T19:21:52.278Z,101564.14
2023-05-05T19:26:57.834Z,101567.81
2023-05-05T19:32:12.850Z,101571.54
2023-05-05T19:37:18.603Z,101569.60
2023-05-05T19:42:24.224Z,101568.06
2023-05-05T19:47:31.516Z,101569.95
2023-05-05T19:52:38.434Z,101574.83
2023-05-05T19:57:43.993Z,101575.92
2023-05-05T20:02:49.750Z,101576.19
2023-05-05T20:07:55.523Z,101572.23
2023-05-05T20:13:01.073Z,101582.95
2023-05-05T20:18:07.995Z,101581.12
2023-05-05T20:23:14.338Z,101577.98
2023-05-05T20:28:19.931Z,101580.45
2023-05-05T20:33:26.411Z,101576.10
2023-05-05T20:38:32.023Z,101573.81
2023-05-05T20:43:38.436Z,101574.98
2023-05-05T20:48:45.054Z,101569.05
2023-05-05T20:53:50.814Z,101567.03
2023-05-05T20:58:56.906Z,101559.13
2023-05-05T21:04:02.818Z,101570.55
2023-05-05T21:09:08.367Z,101576.17
2023-05-05T21:14:13.906Z,101569.92
2023-05-05T21:19:19.693Z,101572.95
2023-05-05T21:24:25.283Z,101584.03
2023-05-05T21:29:32.406Z,101579.78
2023-05-05T21:34:40.218Z,101575.09
2023-05-05T21:39:45.859Z,101571.35
2023-05-05T21:44:53.080Z,101567.97
2023-05-05T21:49:59.897Z,101564.07
2023-05-05T21:55:10.066Z,101566.63
2023-05-05T22:00:16.948Z,101573.96
2023-05-05T22:05:23.510Z,101575.08
2023-05-05T22:10:29.334Z,101567.76
2023-05-05T22:15:45.981Z,101567.42
2023-05-05T22:20:44.445Z,101565.45
2023-05-05T22:25:50.362Z,101561.27
2023-05-05T22:30:55.967Z,101566.77
2023-05-05T22:36:01.446Z,101568.50
2023-05-05T22:41:08.464Z,101573.58
2023-05-05T22:46:15.188Z,101572.56
2023-05-05T22:51:20.639Z,101566.88
2023-05-05T22:56:26.218Z,101567.81
2023-05-05T23:01:32.265Z,101568.68
2023-05-05T23:06:39.371Z,101552.89
2023-05-05T23:11:45.957Z,101559.33
2023-05-05T23:16:51.506Z,101541.77
2023-05-05T23:21:57.091Z,101540.81
2023-05-05T23:27:03.086Z,101545.86
2023-05-05T23:32:08.858Z,101536.81
2023-05-05T23:37:15.025Z,101529.23
2023-05-05T23:42:20.648Z,101530.18
2023-05-05T23:47:26.121Z,101520.43
2023-05-05T23:52:31.687Z,101515.88
2023-05-05T23:57:44.685Z,101516.27
